sensor_id;sensor_type;location;lat;lon;timestamp;P1;durP1;ratioP1;P2;durP2;ratioP2
22965;SDS011;11649;48.090;9.754;2023-01-26T00:01:08;26.95;;;14.63;;
22965;SDS011;11649;48.090;9.754;2023-01-26T00:03:39;27.83;;;15.07;;
22965;SDS011;11649;48.090;9.754;2023-01-26T00:06:07;27.98;;;13.95;;
22965;SDS011;11649;48.090;9.754;2023-01-26T00:08:39;26.67;;;14.43;;
22965;SDS011;11649;48.090;9.754;2023-01-26T00:11:08;26.40;;;14.30;;
22965;SDS011;11649;48.090;9.754;2023-01-26T00:13:35;28.25;;;14.35;;
22965;SDS011;11649;48.090;9.754;2023-01-26T00:16:03;29.55;;;14.68;;
22965;SDS011;11649;48.090;9.754;2023-01-26T00:18:30;28.52;;;13.57;;
22965;SDS011;11649;48.090;9.754;2023-01-26T00:20:57;28.45;;;15.18;;
22965;SDS011;11649;48.090;9.754;2023-01-26T00:23:26;27.55;;;14.48;;
22965;SDS011;11649;48.090;9.754;2023-01-26T00:25:53;26.38;;;13.30;;
22965;SDS011;11649;48.090;9.754;2023-01-26T00:28:20;28.17;;;15.05;;
22965;SDS011;11649;48.090;9.754;2023-01-26T00:30:47;26.90;;;14.02;;
22965;SDS011;11649;48.090;9.754;2023-01-26T00:33:14;27.00;;;14.15;;
22965;SDS011;11649;48.090;9.754;2023-01-26T00:35:41;23.50;;;12.80;;
22965;SDS011;11649;48.090;9.754;2023-01-26T00:38:11;26.92;;;14.02;;
22965;SDS011;11649;48.090;9.754;2023-01-26T00:40:39;26.35;;;14.27;;
22965;SDS011;11649;48.090;9.754;2023-01-26T00:43:05;25.10;;;14.18;;
22965;SDS011;11649;48.090;9.754;2023-01-26T00:45:33;27.38;;;14.68;;
22965;SDS011;11649;48.090;9.754;2023-01-26T00:48:00;28.13;;;15.38;;
22965;SDS011;11649;48.090;9.754;2023-01-26T00:50:27;26.83;;;15.13;;
22965;SDS011;11649;48.090;9.754;2023-01-26T00:52:54;23.27;;;13.18;;
22965;SDS011;11649;48.090;9.754;2023-01-26T00:55:21;27.10;;;14.05;;
22965;SDS011;11649;48.090;9.754;2023-01-26T00:57:48;23.60;;;12.98;;
22965;SDS011;11649;48.090;9.754;2023-01-26T01:00:16;22.27;;;12.60;;
22965;SDS011;11649;48.090;9.754;2023-01-26T01:02:43;23.58;;;13.32;;
22965;SDS011;11649;48.090;9.754;2023-01-26T01:05:10;23.75;;;12.98;;
22965;SDS011;11649;48.090;9.754;2023-01-26T01:07:37;16.42;;;10.00;;
22965;SDS011;11649;48.090;9.754;2023-01-26T01:10:04;19.95;;;10.75;;
22965;SDS011;11649;48.090;9.754;2023-01-26T01:12:30;18.13;;;9.90;;
22965;SDS011;11649;48.090;9.754;2023-01-26T01:14:57;16.23;;;9.38;;
22965;SDS011;11649;48.090;9.754;2023-01-26T01:17:24;15.65;;;9.65;;
22965;SDS011;11649;48.090;9.754;2023-01-26T01:19:51;18.30;;;10.13;;
22965;SDS011;11649;48.090;9.754;2023-01-26T01:22:17;16.65;;;9.90;;
22965;SDS011;11649;48.090;9.754;2023-01-26T01:24:44;18.08;;;10.13;;
22965;SDS011;11649;48.090;9.754;2023-01-26T01:27:11;18.60;;;10.93;;
22965;SDS011;11649;48.090;9.754;2023-01-26T01:29:38;16.83;;;10.07;;
22965;SDS011;11649;48.090;9.754;2023-01-26T01:32:04;18.63;;;9.90;;
22965;SDS011;11649;48.090;9.754;2023-01-26T01:34:31;18.90;;;10.63;;
22965;SDS011;11649;48.090;9.754;2023-01-26T01:36:58;18.85;;;11.30;;
22965;SDS011;11649;48.090;9.754;2023-01-26T01:39:25;20.95;;;11.90;;
22965;SDS011;11649;48.090;9.754;2023-01-26T01:41:51;23.98;;;12.02;;
22965;SDS011;11649;48.090;9.754;2023-01-26T01:44:19;23.13;;;13.13;;
22965;SDS011;11649;48.090;9.754;2023-01-26T01:46:50;22.95;;;12.88;;
22965;SDS011;11649;48.090;9.754;2023-01-26T01:49:32;21.23;;;12.35;;
22965;SDS011;11649;48.090;9.754;2023-01-26T01:52:05;22.75;;;12.68;;
22965;SDS011;11649;48.090;9.754;2023-01-26T01:54:36;19.30;;;11.48;;
22965;SDS011;11649;48.090;9.754;2023-01-26T01:57:10;21.55;;;12.13;;
22965;SDS011;11649;48.090;9.754;2023-01-26T02:02:12;22.38;;;13.27;;
22965;SDS011;11649;48.090;9.754;2023-01-26T02:04:40;21.60;;;12.93;;
22965;SDS011;11649;48.090;9.754;2023-01-26T02:07:07;22.73;;;13.32;;
22965;SDS011;11649;48.090;9.754;2023-01-26T02:09:36;22.45;;;13.27;;
22965;SDS011;11649;48.090;9.754;2023-01-26T02:12:26;26.85;;;14.38;;
22965;SDS011;11649;48.090;9.754;2023-01-26T02:14:56;25.13;;;14.32;;
22965;SDS011;11649;48.090;9.754;2023-01-26T02:17:23;29.25;;;16.13;;
22965;SDS011;11649;48.090;9.754;2023-01-26T02:19:59;24.95;;;13.93;;
22965;SDS011;11649;48.090;9.754;2023-01-26T02:28:18;27.20;;;14.05;;
22965;SDS011;11649;48.090;9.754;2023-01-26T02:30:48;23.33;;;13.73;;
22965;SDS011;11649;48.090;9.754;2023-01-26T02:33:18;25.15;;;13.68;;
22965;SDS011;11649;48.090;9.754;2023-01-26T02:35:47;25.90;;;13.63;;
22965;SDS011;11649;48.090;9.754;2023-01-26T02:38:14;26.85;;;14.68;;
22965;SDS011;11649;48.090;9.754;2023-01-26T02:40:42;25.60;;;13.88;;
22965;SDS011;11649;48.090;9.754;2023-01-26T02:43:20;20.77;;;10.95;;
22965;SDS011;11649;48.090;9.754;2023-01-26T02:45:49;23.30;;;11.68;;
22965;SDS011;11649;48.090;9.754;2023-01-26T02:48:15;24.88;;;13.77;;
22965;SDS011;11649;48.090;9.754;2023-01-26T02:51:02;26.70;;;13.77;;
22965;SDS011;11649;48.090;9.754;2023-01-26T02:53:30;26.50;;;13.15;;
22965;SDS011;11649;48.090;9.754;2023-01-26T02:55:57;27.67;;;14.40;;
22965;SDS011;11649;48.090;9.754;2023-01-26T02:58:24;27.17;;;14.15;;
22965;SDS011;11649;48.090;9.754;2023-01-26T03:00:50;27.70;;;14.20;;
22965;SDS011;11649;48.090;9.754;2023-01-26T03:03:20;28.60;;;14.57;;
22965;SDS011;11649;48.090;9.754;2023-01-26T03:06:10;28.33;;;14.05;;
22965;SDS011;11649;48.090;9.754;2023-01-26T03:08:38;30.35;;;14.95;;
22965;SDS011;11649;48.090;9.754;2023-01-26T03:11:05;27.40;;;14.68;;
22965;SDS011;11649;48.090;9.754;2023-01-26T03:13:33;27.55;;;14.48;;
22965;SDS011;11649;48.090;9.754;2023-01-26T03:16:01;29.67;;;14.68;;
22965;SDS011;11649;48.090;9.754;2023-01-26T03:18:35;23.92;;;12.95;;
22965;SDS011;11649;48.090;9.754;2023-01-26T03:21:20;30.23;;;14.63;;
22965;SDS011;11649;48.090;9.754;2023-01-26T03:24:10;24.60;;;13.27;;
22965;SDS011;11649;48.090;9.754;2023-01-26T03:26:56;24.55;;;13.15;;
22965;SDS011;11649;48.090;9.754;2023-01-26T03:29:42;22.42;;;12.93;;
22965;SDS011;11649;48.090;9.754;2023-01-26T03:32:09;26.23;;;13.63;;
22965;SDS011;11649;48.090;9.754;2023-01-26T03:34:36;25.58;;;12.95;;
22965;SDS011;11649;48.090;9.754;2023-01-26T03:37:03;22.02;;;12.70;;
22965;SDS011;11649;48.090;9.754;2023-01-26T03:39:30;21.83;;;12.75;;
22965;SDS011;11649;48.090;9.754;2023-01-26T03:42:15;22.27;;;11.88;;
22965;SDS011;11649;48.090;9.754;2023-01-26T03:45:01;24.75;;;12.75;;
22965;SDS011;11649;48.090;9.754;2023-01-26T03:47:46;24.80;;;13.10;;
22965;SDS011;11649;48.090;9.754;2023-01-26T03:50:32;22.83;;;12.38;;
22965;SDS011;11649;48.090;9.754;2023-01-26T03:53:18;22.88;;;12.10;;
22965;SDS011;11649;48.090;9.754;2023-01-26T03:56:09;20.73;;;11.20;;
22965;SDS011;11649;48.090;9.754;2023-01-26T03:58:52;21.02;;;11.70;;
22965;SDS011;11649;48.090;9.754;2023-01-26T04:01:21;22.48;;;11.88;;
22965;SDS011;11649;48.090;9.754;2023-01-26T04:03:58;20.38;;;11.75;;
22965;SDS011;11649;48.090;9.754;2023-01-26T04:06:44;19.63;;;11.32;;
22965;SDS011;11649;48.090;9.754;2023-01-26T04:09:30;21.48;;;11.15;;
22965;SDS011;11649;48.090;9.754;2023-01-26T04:11:58;19.75;;;11.38;;
22965;SDS011;11649;48.090;9.754;2023-01-26T04:14:25;20.83;;;11.30;;
22965;SDS011;11649;48.090;9.754;2023-01-26T04:17:16;20.50;;;11.50;;
22965;SDS011;11649;48.090;9.754;2023-01-26T04:20:03;22.98;;;11.93;;
22965;SDS011;11649;48.090;9.754;2023-01-26T04:22:49;19.98;;;11.57;;
22965;SDS011;11649;48.090;9.754;2023-01-26T04:25:17;22.20;;;11.63;;
22965;SDS011;11649;48.090;9.754;2023-01-26T04:27:45;19.60;;;10.40;;
22965;SDS011;11649;48.090;9.754;2023-01-26T04:30:13;19.00;;;10.70;;
22965;SDS011;11649;48.090;9.754;2023-01-26T04:32:40;22.20;;;11.82;;
22965;SDS011;11649;48.090;9.754;2023-01-26T04:35:08;22.15;;;11.77;;
22965;SDS011;11649;48.090;9.754;2023-01-26T04:37:35;19.25;;;11.02;;
22965;SDS011;11649;48.090;9.754;2023-01-26T04:40:03;21.77;;;11.85;;
22965;SDS011;11649;48.090;9.754;2023-01-26T04:42:31;18.73;;;10.80;;
22965;SDS011;11649;48.090;9.754;2023-01-26T04:44:57;18.42;;;10.20;;
22965;SDS011;11649;48.090;9.754;2023-01-26T04:47:24;18.48;;;11.35;;
22965;SDS011;11649;48.090;9.754;2023-01-26T04:49:54;20.00;;;10.68;;
22965;SDS011;11649;48.090;9.754;2023-01-26T04:52:21;18.50;;;10.63;;
22965;SDS011;11649;48.090;9.754;2023-01-26T04:54:47;17.65;;;10.18;;
22965;SDS011;11649;48.090;9.754;2023-01-26T04:57:14;18.65;;;10.40;;
22965;SDS011;11649;48.090;9.754;2023-01-26T04:59:41;19.98;;;10.68;;
22965;SDS011;11649;48.090;9.754;2023-01-26T05:02:08;16.65;;;9.15;;
22965;SDS011;11649;48.090;9.754;2023-01-26T05:04:35;17.13;;;9.23;;
22965;SDS011;11649;48.090;9.754;2023-01-26T05:07:02;15.85;;;9.20;;
22965;SDS011;11649;48.090;9.754;2023-01-26T05:09:29;17.50;;;9.93;;
22965;SDS011;11649;48.090;9.754;2023-01-26T05:11:56;18.70;;;10.07;;
22965;SDS011;11649;48.090;9.754;2023-01-26T05:14:42;17.00;;;9.90;;
22965;SDS011;11649;48.090;9.754;2023-01-26T05:17:09;18.00;;;10.55;;
22965;SDS011;11649;48.090;9.754;2023-01-26T05:19:36;18.20;;;10.30;;
22965;SDS011;11649;48.090;9.754;2023-01-26T05:22:03;19.13;;;10.23;;
22965;SDS011;11649;48.090;9.754;2023-01-26T05:24:29;18.40;;;10.10;;
22965;SDS011;11649;48.090;9.754;2023-01-26T05:26:56;19.42;;;10.98;;
22965;SDS011;11649;48.090;9.754;2023-01-26T05:29:43;20.42;;;10.35;;
22965;SDS011;11649;48.090;9.754;2023-01-26T05:32:09;21.23;;;10.73;;
22965;SDS011;11649;48.090;9.754;2023-01-26T05:34:36;19.75;;;10.65;;
22965;SDS011;11649;48.090;9.754;2023-01-26T05:37:03;20.13;;;10.48;;
22965;SDS011;11649;48.090;9.754;2023-01-26T05:39:30;19.38;;;10.20;;
22965;SDS011;11649;48.090;9.754;2023-01-26T05:41:57;18.77;;;11.15;;
22965;SDS011;11649;48.090;9.754;2023-01-26T05:44:24;18.05;;;10.30;;
22965;SDS011;11649;48.090;9.754;2023-01-26T05:46:51;22.25;;;12.48;;
22965;SDS011;11649;48.090;9.754;2023-01-26T05:49:17;24.20;;;12.02;;
22965;SDS011;11649;48.090;9.754;2023-01-26T05:51:44;22.65;;;11.68;;
22965;SDS011;11649;48.090;9.754;2023-01-26T05:54:11;22.60;;;12.05;;
22965;SDS011;11649;48.090;9.754;2023-01-26T05:56:37;21.98;;;12.18;;
22965;SDS011;11649;48.090;9.754;2023-01-26T05:59:04;21.10;;;11.65;;
22965;SDS011;11649;48.090;9.754;2023-01-26T06:01:31;19.73;;;11.18;;
22965;SDS011;11649;48.090;9.754;2023-01-26T06:03:58;19.15;;;11.27;;
22965;SDS011;11649;48.090;9.754;2023-01-26T06:06:24;21.70;;;11.73;;
22965;SDS011;11649;48.090;9.754;2023-01-26T06:08:51;20.25;;;11.77;;
22965;SDS011;11649;48.090;9.754;2023-01-26T06:11:18;21.35;;;12.15;;
22965;SDS011;11649;48.090;9.754;2023-01-26T06:13:45;21.17;;;12.07;;
22965;SDS011;11649;48.090;9.754;2023-01-26T06:16:11;20.60;;;12.00;;
22965;SDS011;11649;48.090;9.754;2023-01-26T06:18:38;22.08;;;11.70;;
22965;SDS011;11649;48.090;9.754;2023-01-26T06:21:05;22.05;;;11.52;;
22965;SDS011;11649;48.090;9.754;2023-01-26T06:23:32;20.95;;;10.93;;
22965;SDS011;11649;48.090;9.754;2023-01-26T06:25:59;20.98;;;12.00;;
22965;SDS011;11649;48.090;9.754;2023-01-26T06:28:26;20.23;;;11.63;;
22965;SDS011;11649;48.090;9.754;2023-01-26T06:31:00;20.27;;;11.07;;
22965;SDS011;11649;48.090;9.754;2023-01-26T06:33:32;22.88;;;12.23;;
22965;SDS011;11649;48.090;9.754;2023-01-26T06:36:03;19.23;;;10.63;;
22965;SDS011;11649;48.090;9.754;2023-01-26T06:38:31;18.48;;;11.20;;
22965;SDS011;11649;48.090;9.754;2023-01-26T06:41:02;20.90;;;11.43;;
22965;SDS011;11649;48.090;9.754;2023-01-26T06:43:31;19.15;;;10.60;;
22965;SDS011;11649;48.090;9.754;2023-01-26T06:46:00;19.55;;;10.85;;
22965;SDS011;11649;48.090;9.754;2023-01-26T06:48:28;19.60;;;11.13;;
22965;SDS011;11649;48.090;9.754;2023-01-26T06:54:08;17.30;;;10.02;;
22965;SDS011;11649;48.090;9.754;2023-01-26T06:56:36;15.95;;;8.60;;
22965;SDS011;11649;48.090;9.754;2023-01-26T06:59:04;13.50;;;8.30;;
22965;SDS011;11649;48.090;9.754;2023-01-26T07:01:38;13.43;;;7.95;;
22965;SDS011;11649;48.090;9.754;2023-01-26T07:04:08;15.82;;;8.45;;
22965;SDS011;11649;48.090;9.754;2023-01-26T07:06:35;14.85;;;8.48;;
22965;SDS011;11649;48.090;9.754;2023-01-26T07:09:02;15.00;;;8.70;;
22965;SDS011;11649;48.090;9.754;2023-01-26T07:11:30;14.68;;;9.10;;
22965;SDS011;11649;48.090;9.754;2023-01-26T07:13:57;15.10;;;8.75;;
22965;SDS011;11649;48.090;9.754;2023-01-26T07:16:24;14.00;;;8.10;;
22965;SDS011;11649;48.090;9.754;2023-01-26T07:18:52;18.08;;;8.50;;
22965;SDS011;11649;48.090;9.754;2023-01-26T07:21:20;15.52;;;8.57;;
22965;SDS011;11649;48.090;9.754;2023-01-26T07:23:48;14.05;;;8.18;;
22965;SDS011;11649;48.090;9.754;2023-01-26T07:26:16;15.23;;;8.57;;
22965;SDS011;11649;48.090;9.754;2023-01-26T07:28:44;13.05;;;8.02;;
22965;SDS011;11649;48.090;9.754;2023-01-26T07:31:10;16.42;;;9.00;;
22965;SDS011;11649;48.090;9.754;2023-01-26T07:33:38;17.02;;;9.38;;
22965;SDS011;11649;48.090;9.754;2023-01-26T07:36:04;15.63;;;9.15;;
22965;SDS011;11649;48.090;9.754;2023-01-26T07:38:32;15.95;;;8.60;;
22965;SDS011;11649;48.090;9.754;2023-01-26T07:41:03;15.82;;;9.20;;
22965;SDS011;11649;48.090;9.754;2023-01-26T07:43:35;16.58;;;9.00;;
22965;SDS011;11649;48.090;9.754;2023-01-26T07:46:03;15.35;;;9.05;;
22965;SDS011;11649;48.090;9.754;2023-01-26T07:48:31;15.52;;;9.02;;
22965;SDS011;11649;48.090;9.754;2023-01-26T07:50:59;14.02;;;8.35;;
22965;SDS011;11649;48.090;9.754;2023-01-26T07:53:29;16.10;;;9.00;;
22965;SDS011;11649;48.090;9.754;2023-01-26T07:56:06;17.73;;;9.52;;
22965;SDS011;11649;48.090;9.754;2023-01-26T07:58:39;17.83;;;10.07;;
22965;SDS011;11649;48.090;9.754;2023-01-26T08:01:10;15.07;;;8.75;;
22965;SDS011;11649;48.090;9.754;2023-01-26T08:03:38;15.88;;;9.15;;
22965;SDS011;11649;48.090;9.754;2023-01-26T08:06:06;14.30;;;8.35;;
22965;SDS011;11649;48.090;9.754;2023-01-26T08:08:37;11.27;;;6.80;;
22965;SDS011;11649;48.090;9.754;2023-01-26T08:11:08;10.23;;;6.63;;
22965;SDS011;11649;48.090;9.754;2023-01-26T08:13:35;12.70;;;7.50;;
22965;SDS011;11649;48.090;9.754;2023-01-26T08:16:03;11.80;;;7.32;;
22965;SDS011;11649;48.090;9.754;2023-01-26T08:21:04;14.02;;;7.60;;
22965;SDS011;11649;48.090;9.754;2023-01-26T08:23:31;10.18;;;6.43;;
22965;SDS011;11649;48.090;9.754;2023-01-26T08:26:04;10.38;;;6.25;;
22965;SDS011;11649;48.090;9.754;2023-01-26T08:28:33;10.60;;;6.70;;
22965;SDS011;11649;48.090;9.754;2023-01-26T08:31:14;12.10;;;6.82;;
22965;SDS011;11649;48.090;9.754;2023-01-26T08:33:45;7.85;;;4.90;;
22965;SDS011;11649;48.090;9.754;2023-01-26T08:36:16;10.85;;;6.95;;
22965;SDS011;11649;48.090;9.754;2023-01-26T08:38:47;10.82;;;6.82;;
22965;SDS011;11649;48.090;9.754;2023-01-26T08:41:14;12.10;;;7.18;;
22965;SDS011;11649;48.090;9.754;2023-01-26T08:43:41;11.63;;;7.00;;
22965;SDS011;11649;48.090;9.754;2023-01-26T08:46:08;12.10;;;7.13;;
22965;SDS011;11649;48.090;9.754;2023-01-26T08:48:34;10.95;;;6.78;;
22965;SDS011;11649;48.090;9.754;2023-01-26T08:51:02;10.00;;;6.10;;
22965;SDS011;11649;48.090;9.754;2023-01-26T08:53:31;8.93;;;5.82;;
22965;SDS011;11649;48.090;9.754;2023-01-26T08:56:03;12.25;;;7.10;;
22965;SDS011;11649;48.090;9.754;2023-01-26T08:58:31;10.30;;;6.03;;
22965;SDS011;11649;48.090;9.754;2023-01-26T09:01:02;9.77;;;6.20;;
22965;SDS011;11649;48.090;9.754;2023-01-26T09:03:33;9.40;;;6.15;;
22965;SDS011;11649;48.090;9.754;2023-01-26T09:06:00;10.10;;;6.03;;
22965;SDS011;11649;48.090;9.754;2023-01-26T09:08:29;12.32;;;6.90;;
22965;SDS011;11649;48.090;9.754;2023-01-26T09:10:57;13.98;;;7.30;;
22965;SDS011;11649;48.090;9.754;2023-01-26T09:13:24;12.60;;;7.55;;
22965;SDS011;11649;48.090;9.754;2023-01-26T09:15:51;13.82;;;7.35;;
22965;SDS011;11649;48.090;9.754;2023-01-26T09:18:17;12.30;;;7.32;;
22965;SDS011;11649;48.090;9.754;2023-01-26T09:20:44;12.75;;;6.80;;
22965;SDS011;11649;48.090;9.754;2023-01-26T09:23:11;9.20;;;6.07;;
22965;SDS011;11649;48.090;9.754;2023-01-26T09:25:38;9.82;;;6.25;;
22965;SDS011;11649;48.090;9.754;2023-01-26T09:28:05;10.38;;;6.50;;
22965;SDS011;11649;48.090;9.754;2023-01-26T09:30:32;14.30;;;7.53;;
22965;SDS011;11649;48.090;9.754;2023-01-26T09:33:00;14.18;;;7.85;;
22965;SDS011;11649;48.090;9.754;2023-01-26T09:35:29;11.88;;;7.18;;
22965;SDS011;11649;48.090;9.754;2023-01-26T09:37:56;13.82;;;7.85;;
22965;SDS011;11649;48.090;9.754;2023-01-26T09:40:30;7.55;;;5.13;;
22965;SDS011;11649;48.090;9.754;2023-01-26T09:49:29;8.13;;;4.72;;
22965;SDS011;11649;48.090;9.754;2023-01-26T09:52:17;10.23;;;5.45;;
22965;SDS011;11649;48.090;9.754;2023-01-26T09:55:14;8.27;;;4.78;;
22965;SDS011;11649;48.090;9.754;2023-01-26T10:00:31;7.95;;;5.03;;
22965;SDS011;11649;48.090;9.754;2023-01-26T10:08:46;9.63;;;5.80;;
22965;SDS011;11649;48.090;9.754;2023-01-26T10:11:17;10.27;;;5.80;;
22965;SDS011;11649;48.090;9.754;2023-01-26T10:14:08;11.05;;;5.95;;
22965;SDS011;11649;48.090;9.754;2023-01-26T10:16:42;10.55;;;6.50;;
22965;SDS011;11649;48.090;9.754;2023-01-26T10:19:17;7.78;;;4.82;;
22965;SDS011;11649;48.090;9.754;2023-01-26T10:21:48;6.30;;;4.50;;
22965;SDS011;11649;48.090;9.754;2023-01-26T10:24:17;6.50;;;4.38;;
22965;SDS011;11649;48.090;9.754;2023-01-26T10:26:47;7.68;;;4.88;;
22965;SDS011;11649;48.090;9.754;2023-01-26T10:29:17;8.75;;;5.30;;
22965;SDS011;11649;48.090;9.754;2023-01-26T10:31:45;7.20;;;4.80;;
22965;SDS011;11649;48.090;9.754;2023-01-26T10:34:14;8.73;;;5.20;;
22965;SDS011;11649;48.090;9.754;2023-01-26T10:36:50;7.95;;;5.10;;
22965;SDS011;11649;48.090;9.754;2023-01-26T10:39:23;9.75;;;5.90;;
22965;SDS011;11649;48.090;9.754;2023-01-26T10:42:00;10.93;;;5.70;;
22965;SDS011;11649;48.090;9.754;2023-01-26T10:44:30;9.68;;;5.75;;
22965;SDS011;11649;48.090;9.754;2023-01-26T10:47:10;9.20;;;6.30;;
22965;SDS011;11649;48.090;9.754;2023-01-26T10:49:43;9.80;;;5.93;;
22965;SDS011;11649;48.090;9.754;2023-01-26T10:52:15;9.82;;;5.85;;
22965;SDS011;11649;48.090;9.754;2023-01-26T10:57:38;9.30;;;5.60;;
22965;SDS011;11649;48.090;9.754;2023-01-26T11:00:08;10.02;;;6.00;;
22965;SDS011;11649;48.090;9.754;2023-01-26T11:02:50;9.90;;;5.93;;
22965;SDS011;11649;48.090;9.754;2023-01-26T11:05:23;11.55;;;6.30;;
22965;SDS011;11649;48.090;9.754;2023-01-26T11:07:51;8.85;;;5.45;;
22965;SDS011;11649;48.090;9.754;2023-01-26T11:10:25;9.50;;;5.80;;
22965;SDS011;11649;48.090;9.754;2023-01-26T11:13:13;9.05;;;5.75;;
22965;SDS011;11649;48.090;9.754;2023-01-26T11:15:44;8.32;;;5.63;;
22965;SDS011;11649;48.090;9.754;2023-01-26T11:21:15;9.00;;;5.80;;
22965;SDS011;11649;48.090;9.754;2023-01-26T11:39:00;8.85;;;5.65;;
22965;SDS011;11649;48.090;9.754;2023-01-26T11:41:55;8.68;;;5.40;;
22965;SDS011;11649;48.090;9.754;2023-01-26T11:44:26;8.45;;;5.40;;
22965;SDS011;11649;48.090;9.754;2023-01-26T11:53:08;13.23;;;7.28;;
22965;SDS011;11649;48.090;9.754;2023-01-26T11:58:46;14.35;;;7.93;;
22965;SDS011;11649;48.090;9.754;2023-01-26T12:01:22;12.88;;;7.88;;
22965;SDS011;11649;48.090;9.754;2023-01-26T12:03:56;15.63;;;8.50;;
22965;SDS011;11649;48.090;9.754;2023-01-26T12:08:55;15.13;;;7.80;;
22965;SDS011;11649;48.090;9.754;2023-01-26T12:11:42;13.02;;;7.40;;
22965;SDS011;11649;48.090;9.754;2023-01-26T12:28:04;15.20;;;9.10;;
22965;SDS011;11649;48.090;9.754;2023-01-26T12:33:38;15.73;;;9.55;;
22965;SDS011;11649;48.090;9.754;2023-01-26T12:44:37;15.68;;;8.75;;
22965;SDS011;11649;48.090;9.754;2023-01-26T12:55:54;13.32;;;7.57;;
22965;SDS011;11649;48.090;9.754;2023-01-26T12:58:33;13.30;;;8.02;;
22965;SDS011;11649;48.090;9.754;2023-01-26T13:01:09;14.93;;;8.40;;
22965;SDS011;11649;48.090;9.754;2023-01-26T13:03:57;12.00;;;7.35;;
22965;SDS011;11649;48.090;9.754;2023-01-26T13:06:33;14.18;;;7.18;;
22965;SDS011;11649;48.090;9.754;2023-01-26T13:09:20;12.38;;;7.03;;
22965;SDS011;11649;48.090;9.754;2023-01-26T13:16:49;16.48;;;8.48;;
22965;SDS011;11649;48.090;9.754;2023-01-26T13:19:51;16.13;;;8.38;;
22965;SDS011;11649;48.090;9.754;2023-01-26T13:27:55;13.32;;;7.93;;
22965;SDS011;11649;48.090;9.754;2023-01-26T13:35:18;12.88;;;7.82;;
22965;SDS011;11649;48.090;9.754;2023-01-26T13:37:49;12.30;;;7.22;;
22965;SDS011;11649;48.090;9.754;2023-01-26T13:40:29;10.88;;;6.82;;
22965;SDS011;11649;48.090;9.754;2023-01-26T13:45:33;11.70;;;6.85;;
22965;SDS011;11649;48.090;9.754;2023-01-26T13:48:11;12.52;;;6.82;;
22965;SDS011;11649;48.090;9.754;2023-01-26T13:50:41;10.23;;;6.43;;
22965;SDS011;11649;48.090;9.754;2023-01-26T13:56:04;12.35;;;6.80;;
22965;SDS011;11649;48.090;9.754;2023-01-26T13:58:43;11.85;;;6.55;;
22965;SDS011;11649;48.090;9.754;2023-01-26T14:01:11;12.90;;;7.00;;
22965;SDS011;11649;48.090;9.754;2023-01-26T14:03:39;12.88;;;6.85;;
22965;SDS011;11649;48.090;9.754;2023-01-26T14:06:16;13.70;;;7.40;;
22965;SDS011;11649;48.090;9.754;2023-01-26T14:08:51;14.13;;;7.93;;
22965;SDS011;11649;48.090;9.754;2023-01-26T14:11:22;13.63;;;8.02;;
22965;SDS011;11649;48.090;9.754;2023-01-26T14:13:52;12.18;;;7.22;;
22965;SDS011;11649;48.090;9.754;2023-01-26T14:16:29;12.63;;;7.70;;
22965;SDS011;11649;48.090;9.754;2023-01-26T14:19:12;15.68;;;8.07;;
22965;SDS011;11649;48.090;9.754;2023-01-26T14:21:47;13.88;;;7.78;;
22965;SDS011;11649;48.090;9.754;2023-01-26T14:24:24;12.98;;;7.60;;
22965;SDS011;11649;48.090;9.754;2023-01-26T14:26:51;14.10;;;7.78;;
22965;SDS011;11649;48.090;9.754;2023-01-26T14:29:19;13.43;;;8.07;;
22965;SDS011;11649;48.090;9.754;2023-01-26T14:31:48;12.27;;;7.32;;
22965;SDS011;11649;48.090;9.754;2023-01-26T14:34:19;15.13;;;8.15;;
22965;SDS011;11649;48.090;9.754;2023-01-26T14:36:48;12.45;;;7.72;;
22965;SDS011;11649;48.090;9.754;2023-01-26T14:39:30;12.90;;;7.50;;
22965;SDS011;11649;48.090;9.754;2023-01-26T14:41:57;13.27;;;7.85;;
22965;SDS011;11649;48.090;9.754;2023-01-26T14:44:25;13.77;;;7.97;;
22965;SDS011;11649;48.090;9.754;2023-01-26T14:47:03;14.93;;;7.93;;
22965;SDS011;11649;48.090;9.754;2023-01-26T14:49:44;14.70;;;8.05;;
22965;SDS011;11649;48.090;9.754;2023-01-26T14:52:25;14.18;;;8.05;;
22965;SDS011;11649;48.090;9.754;2023-01-26T14:54:55;16.40;;;8.38;;
22965;SDS011;11649;48.090;9.754;2023-01-26T14:57:25;14.77;;;8.07;;
22965;SDS011;11649;48.090;9.754;2023-01-26T14:59:54;13.88;;;7.93;;
22965;SDS011;11649;48.090;9.754;2023-01-26T15:05:08;13.57;;;8.10;;
22965;SDS011;11649;48.090;9.754;2023-01-26T15:08:32;13.75;;;8.35;;
22965;SDS011;11649;48.090;9.754;2023-01-26T15:10:51;15.38;;;8.63;;
22965;SDS011;11649;48.090;9.754;2023-01-26T15:13:23;13.07;;;8.02;;
22965;SDS011;11649;48.090;9.754;2023-01-26T15:16:00;12.88;;;8.02;;
22965;SDS011;11649;48.090;9.754;2023-01-26T15:18:30;13.88;;;8.15;;
22965;SDS011;11649;48.090;9.754;2023-01-26T15:23:31;14.93;;;8.13;;
22965;SDS011;11649;48.090;9.754;2023-01-26T15:26:06;15.90;;;9.40;;
22965;SDS011;11649;48.090;9.754;2023-01-26T15:28:42;16.63;;;9.40;;
22965;SDS011;11649;48.090;9.754;2023-01-26T15:31:17;15.10;;;8.20;;
22965;SDS011;11649;48.090;9.754;2023-01-26T15:33:55;14.55;;;8.45;;
22965;SDS011;11649;48.090;9.754;2023-01-26T15:36:30;13.27;;;6.55;;
22965;SDS011;11649;48.090;9.754;2023-01-26T15:39:16;14.73;;;8.75;;
22965;SDS011;11649;48.090;9.754;2023-01-26T15:41:57;13.73;;;8.50;;
22965;SDS011;11649;48.090;9.754;2023-01-26T15:44:39;15.63;;;9.27;;
22965;SDS011;11649;48.090;9.754;2023-01-26T15:47:08;18.13;;;9.15;;
22965;SDS011;11649;48.090;9.754;2023-01-26T15:49:36;15.35;;;9.25;;
22965;SDS011;11649;48.090;9.754;2023-01-26T15:52:13;14.10;;;8.52;;
22965;SDS011;11649;48.090;9.754;2023-01-26T15:54:41;14.80;;;8.55;;
22965;SDS011;11649;48.090;9.754;2023-01-26T15:57:11;17.38;;;9.15;;
22965;SDS011;11649;48.090;9.754;2023-01-26T15:59:39;15.40;;;8.65;;
22965;SDS011;11649;48.090;9.754;2023-01-26T16:02:16;14.23;;;8.93;;
22965;SDS011;11649;48.090;9.754;2023-01-26T16:04:47;14.73;;;8.00;;
22965;SDS011;11649;48.090;9.754;2023-01-26T16:07:15;15.10;;;8.32;;
22965;SDS011;11649;48.090;9.754;2023-01-26T16:09:43;16.98;;;8.35;;
22965;SDS011;11649;48.090;9.754;2023-01-26T16:12:11;15.13;;;8.75;;
22965;SDS011;11649;48.090;9.754;2023-01-26T16:14:56;14.10;;;8.77;;
22965;SDS011;11649;48.090;9.754;2023-01-26T16:17:23;17.23;;;9.32;;
22965;SDS011;11649;48.090;9.754;2023-01-26T16:19:50;14.45;;;8.23;;
22965;SDS011;11649;48.090;9.754;2023-01-26T16:22:16;17.67;;;9.52;;
22965;SDS011;11649;48.090;9.754;2023-01-26T16:24:43;16.00;;;9.07;;
22965;SDS011;11649;48.090;9.754;2023-01-26T16:27:10;15.95;;;9.40;;
22965;SDS011;11649;48.090;9.754;2023-01-26T16:29:37;16.58;;;9.45;;
22965;SDS011;11649;48.090;9.754;2023-01-26T16:32:07;16.30;;;9.32;;
22965;SDS011;11649;48.090;9.754;2023-01-26T16:34:51;17.77;;;9.40;;
22965;SDS011;11649;48.090;9.754;2023-01-26T16:37:18;13.45;;;8.48;;
22965;SDS011;11649;48.090;9.754;2023-01-26T16:39:44;14.40;;;8.85;;
22965;SDS011;11649;48.090;9.754;2023-01-26T16:42:12;15.50;;;9.15;;
22965;SDS011;11649;48.090;9.754;2023-01-26T16:44:44;20.13;;;9.88;;
22965;SDS011;11649;48.090;9.754;2023-01-26T16:47:12;15.13;;;9.07;;
22965;SDS011;11649;48.090;9.754;2023-01-26T16:49:38;15.60;;;9.23;;
22965;SDS011;11649;48.090;9.754;2023-01-26T16:52:06;13.82;;;9.10;;
22965;SDS011;11649;48.090;9.754;2023-01-26T16:54:33;16.35;;;8.63;;
22965;SDS011;11649;48.090;9.754;2023-01-26T16:57:00;16.02;;;9.30;;